KBRD

Brainerd Lakes Regional Airport

Brainerd, Minnesota, USA
KBRD 182339Z 1900/1924 02006KT P6SM BKN100 FM190700 36005KT P6SM SCT150
Issued Valid From Valid To
Jan-18 @ 23:39 UTC
(3 hours ago)
Jan-19 @ 00:00 UTC
(2 hours ago)
Jan-20 @ 00:00 UTC
(in 22 hours)
Jan-19 @ 00:00 to Jan-19 @ 07:00
KBRD 182339Z 1900/1924 02006KT P6SM BKN100
Wind Visibility Clouds
20° at 6 knots Greater than 6 miles
  • Broken at 10,000' AGL
From Jan-19 @ 07:00 to Jan-20 @ 00:00
FM190700 36005KT P6SM SCT150
Wind Visibility Clouds
360° at 5 knots Greater than 6 miles
  • Scattered at 15,000' AGL
KBRD 182339Z 1900/1924 02006KT P6SM BKN100 FM190700 36005KT P6SM SCT150
Issued Jan-18 @ 23:39 UTC
(3 hours ago)
Valid From Jan-19 @ 00:00 UTC
(2 hours ago)
Valid To Jan-20 @ 00:00 UTC
(in 22 hours)
Jan-19 @ 00:00 - Jan-19 @ 07:00
Wind Visibility
20° at 6 knots Greater than 6 miles
Clouds
  • Broken at 10,000' AGL
From Jan-19 @ 07:00 - Jan-20 @ 00:00
Wind Visibility
360° at 5 knots Greater than 6 miles
Clouds
  • Scattered at 15,000' AGL